createdAt,value
2023-05-06T00:01:50.235Z,11.84
2023-05-06T00:04:18.113Z,11.84
2023-05-06T00:06:45.303Z,11.73
2023-05-06T00:09:12.672Z,11.72
2023-05-06T00:11:40.709Z,11.70
2023-05-06T00:14:07.904Z,11.63
2023-05-06T00:16:35.303Z,11.62
2023-05-06T00:19:02.913Z,11.59
2023-05-06T00:21:30.285Z,11.58
2023-05-06T00:23:57.671Z,11.57
2023-05-06T00:26:25.190Z,11.56
2023-05-06T00:28:53.812Z,11.53
2023-05-06T00:31:21.020Z,11.58
2023-05-06T00:33:48.637Z,11.60
2023-05-06T00:36:17.530Z,11.59
2023-05-06T00:38:44.936Z,11.62
2023-05-06T00:41:12.621Z,11.63
2023-05-06T00:43:39.843Z,11.51
2023-05-06T00:46:08.873Z,11.34
2023-05-06T00:48:36.624Z,11.34
2023-05-06T00:51:04.510Z,11.28
2023-05-06T00:53:33.026Z,11.39
2023-05-06T00:56:01.059Z,11.22
2023-05-06T00:58:28.336Z,11.19
2023-05-06T01:00:55.856Z,11.18
2023-05-06T01:03:24.321Z,11.14
2023-05-06T01:05:57.446Z,11.07
2023-05-06T01:08:35.428Z,10.92
2023-05-06T01:11:07.269Z,10.88
2023-05-06T01:13:49.034Z,10.95
2023-05-06T01:16:18.634Z,10.97
2023-05-06T01:18:49.443Z,10.83
2023-05-06T01:21:17.877Z,10.93
2023-05-06T01:24:04.194Z,10.90
2023-05-06T01:26:31.659Z,10.83
2023-05-06T01:29:02.088Z,10.80
2023-05-06T01:31:40.477Z,10.80
2023-05-06T01:34:16.898Z,10.86
2023-05-06T01:37:04.737Z,10.94
2023-05-06T01:39:32.650Z,10.93
2023-05-06T01:42:02.466Z,10.93
2023-05-06T01:44:33.634Z,10.90
2023-05-06T01:47:06.150Z,10.92
2023-05-06T01:49:34.888Z,10.90
2023-05-06T01:52:02.479Z,10.96
2023-05-06T01:54:29.741Z,11.09
2023-05-06T01:56:56.936Z,11.14
2023-05-06T01:59:24.612Z,11.03
2023-05-06T02:01:52.253Z,11.10
2023-05-06T02:04:19.745Z,11.12
2023-05-06T02:06:46.977Z,11.09
2023-05-06T02:09:16.044Z,11.03
2023-05-06T02:11:44.134Z,11.00
2023-05-06T02:14:11.977Z,11.02
2023-05-06T02:16:39.227Z,11.03
2023-05-06T02:19:07.099Z,10.96
2023-05-06T02:21:34.273Z,10.86
2023-05-06T02:24:01.790Z,10.80
2023-05-06T02:26:28.931Z,10.76
2023-05-06T02:28:56.111Z,10.68
2023-05-06T02:31:23.713Z,10.69
2023-05-06T02:33:51.119Z,10.69
2023-05-06T02:36:18.227Z,10.66
2023-05-06T02:38:45.694Z,10.69
2023-05-06T02:41:12.895Z,10.65
2023-05-06T02:43:40.072Z,10.56
2023-05-06T02:46:07.778Z,10.59
2023-05-06T02:48:35.420Z,10.53
2023-05-06T02:51:03.584Z,10.54
2023-05-06T02:53:31.110Z,10.50
2023-05-06T02:55:58.279Z,10.40
2023-05-06T02:58:26.324Z,10.29
2023-05-06T03:00:53.717Z,10.29
2023-05-06T03:03:22.564Z,10.32
2023-05-06T03:05:49.727Z,10.41
2023-05-06T03:08:17.360Z,10.39
2023-05-06T03:10:44.587Z,10.35
2023-05-06T03:13:12.499Z,10.33
2023-05-06T03:15:40.134Z,10.34
2023-05-06T03:18:07.402Z,10.30
2023-05-06T03:20:34.980Z,10.32
2023-05-06T03:23:02.587Z,10.38
2023-05-06T03:25:30.436Z,10.44
2023-05-06T03:27:57.622Z,10.43
2023-05-06T03:30:25.025Z,10.54
2023-05-06T03:32:56.004Z,10.65
2023-05-06T03:35:24.073Z,10.70
2023-05-06T03:37:51.742Z,10.73
2023-05-06T03:40:19.573Z,10.85
2023-05-06T03:42:46.841Z,10.96
2023-05-06T03:45:14.683Z,11.13
2023-05-06T03:47:42.053Z,11.32
2023-05-06T03:50:10.330Z,11.44
2023-05-06T03:52:38.762Z,11.57
2023-05-06T03:55:07.050Z,11.70
2023-05-06T03:57:34.669Z,11.77
2023-05-06T04:00:02.190Z,11.81
2023-05-06T04:02:30.845Z,11.92
2023-05-06T04:04:58.857Z,11.97
2023-05-06T04:07:26.114Z,12.05
2023-05-06T04:09:53.273Z,12.18
2023-05-06T04:12:21.130Z,12.29
2023-05-06T04:14:49.037Z,12.41
2023-05-06T04:17:16.269Z,12.54
2023-05-06T04:19:43.949Z,12.69
2023-05-06T04:22:11.052Z,12.87
2023-05-06T04:24:38.535Z,13.03
2023-05-06T04:27:06.589Z,12.85
2023-05-06T04:29:33.993Z,13.02
2023-05-06T04:32:02.972Z,13.14
2023-05-06T04:34:31.299Z,13.40
2023-05-06T04:36:58.961Z,13.43
2023-05-06T04:39:26.501Z,13.48
2023-05-06T04:41:54.439Z,13.70
2023-05-06T04:44:22.481Z,13.58
2023-05-06T04:46:49.927Z,13.28
2023-05-06T04:49:17.375Z,13.62
2023-05-06T04:51:44.809Z,13.54
2023-05-06T04:54:12.148Z,13.19
2023-05-06T04:56:40.458Z,13.05
2023-05-06T04:59:08.495Z,13.10
2023-05-06T05:01:35.654Z,13.14
2023-05-06T05:04:03.267Z,13.37
2023-05-06T05:06:31.970Z,13.70
2023-05-06T05:08:59.915Z,14.01
2023-05-06T05:11:28.268Z,13.96
2023-05-06T05:13:58.899Z,14.19
2023-05-06T05:16:27.822Z,14.60
2023-05-06T05:18:55.219Z,14.52
2023-05-06T05:21:23.445Z,14.64
2023-05-06T05:23:51.035Z,14.69
2023-05-06T05:26:18.161Z,14.50
2023-05-06T05:28:45.888Z,14.64
2023-05-06T05:31:13.513Z,14.91
2023-05-06T05:33:41.253Z,15.17
2023-05-06T05:36:09.181Z,15.37
2023-05-06T05:38:37.146Z,15.43
2023-05-06T05:41:04.768Z,15.80
2023-05-06T05:43:32.518Z,17.20
2023-05-06T05:46:01.353Z,18.45
2023-05-06T05:48:32.889Z,19.00
2023-05-06T05:51:04.282Z,20.58
2023-05-06T05:53:31.811Z,21.91
2023-05-06T05:55:59.355Z,22.34
2023-05-06T05:58:27.056Z,21.85
2023-05-06T06:00:55.479Z,22.91
2023-05-06T06:03:23.110Z,24.23
2023-05-06T06:05:52.981Z,25.72
2023-05-06T06:08:20.305Z,22.36
2023-05-06T06:10:48.286Z,22.26
2023-05-06T06:13:16.045Z,21.72
2023-05-06T06:15:43.466Z,23.87
2023-05-06T06:18:10.941Z,23.08
2023-05-06T06:20:38.621Z,23.00
2023-05-06T06:23:05.931Z,24.11
2023-05-06T06:25:33.775Z,25.36
2023-05-06T06:28:00.993Z,25.22
2023-05-06T06:30:28.559Z,23.28
2023-05-06T06:32:56.706Z,22.47
2023-05-06T06:35:24.042Z,23.85
2023-05-06T06:37:51.814Z,23.26
2023-05-06T06:40:19.942Z,22.94
2023-05-06T06:42:47.967Z,23.89
2023-05-06T06:45:17.794Z,22.75
2023-05-06T06:47:45.460Z,23.27
2023-05-06T06:50:12.826Z,23.54
2023-05-06T06:52:40.257Z,23.94
2023-05-06T06:55:08.704Z,25.20
2023-05-06T06:57:37.219Z,25.79
2023-05-06T07:00:05.223Z,26.31
2023-05-06T07:02:32.794Z,26.48
2023-05-06T07:04:59.958Z,26.67
2023-05-06T07:07:27.367Z,26.47
2023-05-06T07:09:55.021Z,26.46
2023-05-06T07:12:23.893Z,26.52
2023-05-06T07:14:51.391Z,26.56
2023-05-06T07:17:18.906Z,26.18
2023-05-06T07:19:46.202Z,25.37
2023-05-06T07:22:13.513Z,24.76
2023-05-06T07:24:41.413Z,26.14
2023-05-06T07:27:08.558Z,26.56
2023-05-06T07:29:36.927Z,25.81
2023-05-06T07:32:04.649Z,27.58
2023-05-06T07:34:34.198Z,24.26
2023-05-06T07:37:01.783Z,26.04
2023-05-06T07:39:29.217Z,26.86
2023-05-06T07:41:56.351Z,27.64
2023-05-06T07:44:23.505Z,27.18
2023-05-06T07:46:51.219Z,26.12
2023-05-06T07:49:18.511Z,28.19
2023-05-06T07:51:45.781Z,28.65
2023-05-06T07:54:13.343Z,27.17
2023-05-06T07:56:40.812Z,28.53
2023-05-06T07:59:07.980Z,27.45
2023-05-06T08:01:36.149Z,29.07
2023-05-06T08:04:03.844Z,30.11
2023-05-06T08:06:32.377Z,29.29
2023-05-06T08:09:00.358Z,27.53
2023-05-06T08:11:27.822Z,28.59
2023-05-06T08:13:55.051Z,27.23
2023-05-06T08:16:25.526Z,28.38
2023-05-06T08:22:24.267Z,28.51
2023-05-06T08:24:52.040Z,27.08
2023-05-06T08:27:19.327Z,26.94
2023-05-06T08:29:46.661Z,28.12
2023-05-06T08:32:14.323Z,28.19
2023-05-06T08:34:41.559Z,29.27
2023-05-06T08:37:09.067Z,29.26
2023-05-06T08:39:36.757Z,29.98
2023-05-06T08:42:05.373Z,30.00
2023-05-06T08:44:33.765Z,29.65
2023-05-06T08:47:01.629Z,28.99
2023-05-06T08:49:29.019Z,28.98
2023-05-06T08:51:57.279Z,28.27
2023-05-06T08:54:26.145Z,28.35
2023-05-06T08:56:54.828Z,28.16
2023-05-06T09:02:52.826Z,28.14
2023-05-06T09:05:20.710Z,28.29
2023-05-06T09:07:47.920Z,27.47
2023-05-06T09:10:15.686Z,27.23
2023-05-06T09:12:43.359Z,27.64
2023-05-06T09:15:11.338Z,27.91
2023-05-06T09:17:38.869Z,27.39
2023-05-06T09:20:09.590Z,27.47
2023-05-06T09:22:38.139Z,27.41
2023-05-06T09:25:06.015Z,27.69
2023-05-06T09:27:34.830Z,27.51
2023-05-06T09:30:12.649Z,27.84
2023-05-06T09:32:41.849Z,28.32
2023-05-06T09:35:10.720Z,28.48
2023-05-06T09:37:38.091Z,29.04
2023-05-06T09:40:06.126Z,29.24
2023-05-06T09:42:34.052Z,29.72
2023-05-06T09:45:02.360Z,29.62
2023-05-06T09:47:35.130Z,29.24
2023-05-06T09:50:03.445Z,28.02
2023-05-06T09:52:31.733Z,27.72
2023-05-06T09:54:59.637Z,27.93
2023-05-06T09:57:30.847Z,27.64
2023-05-06T09:59:59.142Z,26.06
2023-05-06T10:05:46.582Z,25.90
2023-05-06T10:11:33.369Z,25.57
2023-05-06T10:14:01.759Z,25.88
2023-05-06T10:16:29.675Z,26.61
2023-05-06T10:22:46.079Z,27.13
2023-05-06T10:28:49.613Z,27.73
2023-05-06T10:31:17.396Z,28.59
2023-05-06T10:33:51.042Z,28.74
2023-05-06T10:36:20.580Z,28.11
2023-05-06T10:38:56.540Z,27.44
2023-05-06T10:45:05.242Z,27.17
2023-05-06T10:47:58.403Z,27.47
2023-05-06T10:50:26.934Z,27.58
2023-05-06T10:52:56.368Z,27.58
2023-05-06T10:55:27.361Z,27.90
2023-05-06T10:58:02.996Z,27.88
2023-05-06T11:00:34.783Z,28.38
2023-05-06T11:03:06.161Z,28.47
2023-05-06T11:05:47.602Z,29.32
2023-05-06T11:08:15.658Z,29.67
2023-05-06T11:10:42.896Z,29.97
2023-05-06T11:13:21.907Z,30.11
2023-05-06T11:15:52.512Z,29.70
2023-05-06T11:21:52.352Z,28.37
2023-05-06T11:24:31.765Z,27.98
2023-05-06T11:30:29.308Z,28.83
2023-05-06T11:36:04.682Z,28.06
2023-05-06T11:38:52.810Z,27.61
2023-05-06T11:41:23.196Z,27.67
2023-05-06T11:43:52.018Z,27.92
2023-05-06T11:46:22.302Z,27.85
2023-05-06T11:48:50.847Z,27.15
2023-05-06T11:51:25.973Z,26.71
2023-05-06T11:54:07.623Z,26.68
2023-05-06T11:56:49.288Z,26.84
2023-05-06T11:59:18.721Z,26.98
2023-05-06T12:01:46.422Z,26.82
2023-05-06T12:04:14.469Z,26.70
2023-05-06T12:06:41.876Z,26.77
2023-05-06T12:09:12.375Z,26.70
2023-05-06T12:11:41.618Z,26.44
2023-05-06T12:14:13.338Z,26.24
2023-05-06T12:16:41.808Z,26.29
2023-05-06T12:19:09.405Z,26.21
2023-05-06T12:21:41.931Z,25.76
2023-05-06T12:27:40.455Z,25.74
2023-05-06T12:30:09.555Z,25.57
2023-05-06T12:32:56.546Z,25.59
2023-05-06T12:35:32.512Z,25.50
2023-05-06T12:38:11.043Z,25.59
2023-05-06T12:40:39.528Z,25.66
2023-05-06T12:43:07.430Z,25.39
2023-05-06T12:45:35.030Z,25.40
2023-05-06T12:48:04.044Z,25.50
2023-05-06T12:50:43.046Z,25.41
2023-05-06T12:53:13.966Z,25.67
2023-05-06T12:55:45.468Z,25.72
2023-05-06T12:58:18.617Z,25.68
2023-05-06T13:00:46.008Z,25.91
2023-05-06T13:03:14.145Z,26.09
2023-05-06T13:05:41.748Z,26.12
2023-05-06T13:08:09.021Z,26.22
2023-05-06T13:10:36.858Z,26.02
2023-05-06T13:13:04.232Z,25.95
2023-05-06T13:15:34.752Z,25.57
2023-05-06T13:18:02.554Z,25.58
2023-05-06T13:20:31.097Z,25.48
2023-05-06T13:22:58.442Z,25.68
2023-05-06T13:25:26.069Z,25.69
2023-05-06T13:27:53.721Z,26.07
2023-05-06T13:30:21.128Z,26.28
2023-05-06T13:32:51.992Z,26.25
2023-05-06T13:35:21.654Z,26.19
2023-05-06T13:37:49.313Z,26.07
2023-05-06T13:40:16.758Z,25.89
2023-05-06T13:42:44.363Z,25.89
2023-05-06T13:45:12.141Z,25.79
2023-05-06T13:47:39.515Z,24.72
2023-05-06T13:50:07.402Z,23.98
2023-05-06T13:52:34.960Z,23.47
2023-05-06T13:55:02.258Z,22.86
2023-05-06T13:57:29.655Z,23.03
2023-05-06T13:59:57.384Z,21.84
2023-05-06T14:02:27.810Z,22.12
2023-05-06T14:04:58.312Z,21.92
2023-05-06T14:07:25.611Z,21.97
2023-05-06T14:09:53.018Z,21.72
2023-05-06T14:12:23.050Z,22.13
2023-05-06T14:14:50.328Z,21.73
2023-05-06T14:17:17.661Z,21.99
2023-05-06T14:19:45.991Z,21.85
2023-05-06T14:22:13.319Z,20.84
2023-05-06T14:24:40.683Z,21.16
2023-05-06T14:27:08.276Z,21.03
2023-05-06T14:29:35.652Z,21.04
2023-05-06T14:32:03.177Z,21.17
2023-05-06T14:34:30.843Z,20.83
2023-05-06T14:37:00.624Z,20.29
2023-05-06T14:39:28.246Z,20.71
2023-05-06T14:41:55.864Z,20.88
2023-05-06T14:44:23.118Z,20.63
2023-05-06T14:46:55.055Z,20.05
2023-05-06T14:49:22.664Z,20.31
2023-05-06T14:51:51.474Z,20.56
2023-05-06T14:54:29.355Z,20.53
2023-05-06T14:57:01.332Z,20.65
2023-05-06T14:59:28.745Z,20.24
2023-05-06T15:01:57.035Z,20.08
2023-05-06T15:04:24.894Z,20.16
2023-05-06T15:06:54.988Z,20.31
2023-05-06T15:09:23.031Z,20.36
2023-05-06T15:11:51.288Z,20.30
2023-05-06T15:14:18.837Z,20.31
2023-05-06T15:16:46.297Z,20.45
2023-05-06T15:19:17.013Z,20.63
2023-05-06T15:21:46.815Z,20.78
2023-05-06T15:24:14.755Z,20.79
2023-05-06T15:26:41.962Z,20.76
2023-05-06T15:29:09.187Z,20.73
2023-05-06T15:31:39.328Z,20.74
2023-05-06T15:34:08.852Z,20.67
2023-05-06T15:36:36.244Z,20.64
2023-05-06T15:39:04.508Z,20.52
2023-05-06T15:41:33.424Z,20.02
2023-05-06T15:44:02.873Z,20.06
2023-05-06T15:46:31.412Z,20.22
2023-05-06T15:49:21.175Z,20.50
2023-05-06T15:51:47.536Z,20.67
2023-05-06T15:54:18.430Z,20.88
2023-05-06T15:56:46.404Z,21.05
2023-05-06T15:59:14.237Z,21.19
2023-05-06T16:02:24.664Z,21.40
2023-05-06T16:04:30.278Z,21.55
2023-05-06T16:10:30.442Z,22.25
2023-05-06T16:12:58.000Z,22.22
2023-05-06T16:15:25.684Z,22.40
2023-05-06T16:17:53.134Z,22.41
2023-05-06T16:20:21.587Z,22.45
2023-05-06T16:22:52.610Z,22.27
2023-05-06T16:25:23.195Z,22.08
2023-05-06T16:27:51.085Z,21.93
2023-05-06T16:30:18.469Z,21.86
2023-05-06T16:32:45.881Z,21.64
2023-05-06T16:35:13.678Z,21.62
2023-05-06T16:37:43.231Z,21.51
2023-05-06T16:40:13.469Z,21.41
2023-05-06T16:42:41.195Z,21.20
2023-05-06T16:45:09.354Z,20.98
2023-05-06T16:47:37.178Z,20.84
2023-05-06T16:50:08.929Z,20.61
2023-05-06T16:52:36.358Z,20.40
2023-05-06T16:55:07.418Z,20.29
2023-05-06T17:01:08.214Z,20.45
2023-05-06T17:07:14.405Z,20.27
2023-05-06T17:09:42.455Z,20.22
2023-05-06T17:12:17.434Z,20.21
2023-05-06T17:14:45.438Z,20.18
2023-05-06T17:17:12.767Z,20.22
2023-05-06T17:19:40.108Z,20.14
2023-05-06T17:22:08.297Z,20.06
2023-05-06T17:24:36.046Z,19.97
2023-05-06T17:27:04.963Z,19.91
2023-05-06T17:29:32.569Z,19.91
2023-05-06T17:31:59.909Z,19.82
2023-05-06T17:34:27.137Z,19.74
2023-05-06T17:36:54.874Z,19.69
2023-05-06T17:39:22.151Z,19.66
2023-05-06T17:41:52.948Z,19.56
2023-05-06T17:44:20.722Z,19.42
2023-05-06T17:46:48.354Z,19.44
2023-05-06T17:49:15.884Z,19.49
2023-05-06T17:55:17.387Z,19.35
2023-05-06T17:57:45.242Z,19.39
2023-05-06T18:00:13.867Z,19.23
2023-05-06T18:06:13.565Z,19.00
2023-05-06T18:08:41.107Z,18.92
2023-05-06T18:11:08.434Z,18.86
2023-05-06T18:13:36.713Z,18.81
2023-05-06T18:16:06.073Z,18.84
2023-05-06T18:18:33.586Z,18.76
2023-05-06T18:21:00.947Z,18.73
2023-05-06T18:23:29.964Z,18.71
2023-05-06T18:25:57.214Z,18.65
2023-05-06T18:28:24.533Z,18.67
2023-05-06T18:34:24.390Z,18.57
2023-05-06T18:36:51.927Z,18.51
2023-05-06T18:39:21.648Z,18.50
2023-05-06T18:41:49.034Z,18.44
2023-05-06T18:44:16.608Z,18.38
2023-05-06T18:46:43.939Z,18.24
2023-05-06T18:49:14.391Z,18.17
2023-05-06T18:51:42.020Z,18.07
2023-05-06T18:54:09.367Z,18.00
2023-05-06T18:56:37.449Z,17.90
2023-05-06T18:59:05.288Z,17.80
2023-05-06T19:01:32.579Z,17.75
2023-05-06T19:04:00.001Z,17.67
2023-05-06T19:06:27.914Z,17.67
2023-05-06T19:08:55.180Z,17.66
2023-05-06T19:11:22.611Z,17.62
2023-05-06T19:13:52.080Z,17.58
2023-05-06T19:16:19.508Z,17.56
2023-05-06T19:18:47.989Z,17.53
2023-05-06T19:21:15.964Z,17.50
2023-05-06T19:23:43.194Z,17.50
2023-05-06T19:26:11.419Z,17.52
2023-05-06T19:28:42.262Z,17.47
2023-05-06T19:31:10.671Z,17.50
2023-05-06T19:37:09.281Z,17.51
2023-05-06T19:39:36.846Z,17.57
2023-05-06T19:42:04.795Z,17.58
2023-05-06T19:44:32.114Z,17.52
2023-05-06T19:46:59.651Z,17.59
2023-05-06T19:49:26.911Z,17.57
2023-05-06T19:51:54.264Z,17.63
2023-05-06T19:54:22.490Z,17.64
2023-05-06T19:56:49.673Z,17.57
2023-05-06T19:59:17.717Z,17.60
2023-05-06T20:01:45.140Z,17.63
2023-05-06T20:04:12.781Z,17.64
2023-05-06T20:06:40.049Z,17.69
2023-05-06T20:09:07.378Z,17.68
2023-05-06T20:11:34.925Z,17.70
2023-05-06T20:14:02.154Z,17.66
2023-05-06T20:16:29.397Z,17.63
2023-05-06T20:18:57.228Z,17.67
2023-05-06T20:21:24.405Z,17.65
2023-05-06T20:23:51.693Z,17.58
2023-05-06T20:26:20.002Z,17.56
2023-05-06T20:28:47.494Z,17.58
2023-05-06T20:31:17.661Z,17.64
2023-05-06T20:33:46.189Z,17.85
2023-05-06T20:36:13.778Z,17.93
2023-05-06T20:38:41.877Z,17.87
2023-05-06T20:41:09.849Z,17.73
2023-05-06T20:43:37.048Z,17.59
2023-05-06T20:46:04.243Z,17.58
2023-05-06T20:48:32.166Z,17.49
2023-05-06T20:50:59.365Z,17.37
2023-05-06T20:53:27.367Z,17.45
2023-05-06T20:55:55.072Z,17.57
2023-05-06T20:58:22.398Z,17.46
2023-05-06T21:00:50.539Z,17.29
2023-05-06T21:03:18.151Z,17.18
2023-05-06T21:05:45.547Z,17.09
2023-05-06T21:08:12.941Z,17.13
2023-05-06T21:10:40.356Z,16.96
2023-05-06T21:16:39.813Z,16.66
2023-05-06T21:19:07.730Z,16.86
2023-05-06T21:21:35.034Z,16.75
2023-05-06T21:24:02.701Z,16.69
2023-05-06T21:26:31.299Z,16.75
2023-05-06T21:28:58.557Z,16.79
2023-05-06T21:31:26.945Z,16.82
2023-05-06T21:33:55.925Z,16.76
2023-05-06T21:36:23.325Z,16.74
2023-05-06T21:39:09.847Z,16.77
2023-05-06T21:41:37.560Z,16.85
2023-05-06T21:44:06.073Z,16.79
2023-05-06T21:46:34.962Z,16.83
2023-05-06T21:49:02.581Z,16.74
2023-05-06T21:51:34.802Z,16.83
2023-05-06T21:54:02.848Z,16.90
2023-05-06T21:56:30.384Z,16.80
2023-05-06T21:58:57.607Z,16.80
2023-05-06T22:01:26.342Z,16.77
2023-05-06T22:03:54.249Z,16.76
2023-05-06T22:06:22.501Z,16.73
2023-05-06T22:08:49.896Z,16.70
2023-05-06T22:11:17.675Z,16.58
2023-05-06T22:13:44.858Z,16.39
2023-05-06T22:16:12.487Z,16.43
2023-05-06T22:18:42.922Z,15.76
2023-05-06T22:21:10.057Z,15.28
2023-05-06T22:23:37.813Z,15.31
2023-05-06T22:26:05.296Z,15.00
2023-05-06T22:28:32.840Z,14.88
2023-05-06T22:30:59.961Z,14.89
2023-05-06T22:33:27.440Z,14.87
2023-05-06T22:35:55.575Z,14.90
2023-05-06T22:38:22.959Z,14.78
2023-05-06T22:40:50.801Z,14.88
2023-05-06T22:43:18.149Z,14.89
2023-05-06T22:45:45.274Z,14.98
2023-05-06T22:48:12.757Z,14.99
2023-05-06T22:50:39.980Z,15.09
2023-05-06T22:53:15.140Z,14.94
2023-05-06T22:55:43.182Z,14.77
2023-05-06T22:58:10.494Z,14.72
2023-05-06T23:00:37.688Z,14.82
2023-05-06T23:03:06.133Z,14.93
2023-05-06T23:05:33.415Z,14.86
2023-05-06T23:08:00.616Z,14.81
2023-05-06T23:10:28.114Z,14.81
2023-05-06T23:12:55.404Z,14.76
2023-05-06T23:15:23.113Z,14.77
2023-05-06T23:17:50.805Z,14.83
2023-05-06T23:20:17.976Z,14.88
2023-05-06T23:22:45.116Z,14.87
2023-05-06T23:25:12.881Z,14.80
2023-05-06T23:27:40.941Z,14.69
2023-05-06T23:33:37.999Z,14.83
2023-05-06T23:36:05.764Z,14.89
2023-05-06T23:38:32.841Z,14.87
2023-05-06T23:40:59.917Z,14.80
2023-05-06T23:43:27.360Z,14.77
2023-05-06T23:45:54.526Z,14.76
2023-05-06T23:48:21.689Z,14.79
2023-05-06T23:50:49.168Z,14.58
2023-05-06T23:53:16.297Z,14.58
2023-05-06T23:55:44.280Z,14.53
2023-05-06T23:58:11.791Z,14.45
